sensor_id;sensor_type;location;lat;lon;timestamp;P1;durP1;ratioP1;P2;durP2;ratioP2
27127;SDS011;14660;49.008;8.390;2023-02-23T00:01:58;34.08;;;21.42;;
27127;SDS011;14660;49.008;8.390;2023-02-23T00:04:29;37.05;;;19.88;;
27127;SDS011;14660;49.008;8.390;2023-02-23T00:06:57;38.30;;;22.58;;
27127;SDS011;14660;49.008;8.390;2023-02-23T00:09:22;39.58;;;22.02;;
27127;SDS011;14660;49.008;8.390;2023-02-23T00:11:49;33.25;;;21.17;;
27127;SDS011;14660;49.008;8.390;2023-02-23T00:14:23;34.95;;;22.70;;
27127;SDS011;14660;49.008;8.390;2023-02-23T00:16:53;36.65;;;22.65;;
27127;SDS011;14660;49.008;8.390;2023-02-23T00:19:21;36.10;;;23.33;;
27127;SDS011;14660;49.008;8.390;2023-02-23T00:21:48;42.55;;;22.10;;
27127;SDS011;14660;49.008;8.390;2023-02-23T00:24:16;36.30;;;22.52;;
27127;SDS011;14660;49.008;8.390;2023-02-23T00:26:48;41.88;;;22.55;;
27127;SDS011;14660;49.008;8.390;2023-02-23T00:29:19;40.85;;;25.08;;
27127;SDS011;14660;49.008;8.390;2023-02-23T00:31:48;35.50;;;21.88;;
27127;SDS011;14660;49.008;8.390;2023-02-23T00:34:17;39.80;;;24.10;;
27127;SDS011;14660;49.008;8.390;2023-02-23T00:36:51;40.72;;;23.88;;
27127;SDS011;14660;49.008;8.390;2023-02-23T00:39:21;39.63;;;23.02;;
27127;SDS011;14660;49.008;8.390;2023-02-23T00:41:52;38.28;;;22.90;;
27127;SDS011;14660;49.008;8.390;2023-02-23T00:44:31;41.40;;;23.20;;
27127;SDS011;14660;49.008;8.390;2023-02-23T00:46:59;38.33;;;23.27;;
27127;SDS011;14660;49.008;8.390;2023-02-23T00:49:27;39.33;;;24.05;;
27127;SDS011;14660;49.008;8.390;2023-02-23T00:51:52;43.58;;;22.33;;
27127;SDS011;14660;49.008;8.390;2023-02-23T00:54:20;41.03;;;23.33;;
27127;SDS011;14660;49.008;8.390;2023-02-23T00:56:48;40.28;;;24.52;;
27127;SDS011;14660;49.008;8.390;2023-02-23T00:59:16;36.78;;;23.80;;
27127;SDS011;14660;49.008;8.390;2023-02-23T01:01:43;39.50;;;25.35;;
27127;SDS011;14660;49.008;8.390;2023-02-23T01:04:10;39.13;;;23.75;;
27127;SDS011;14660;49.008;8.390;2023-02-23T01:06:38;40.53;;;23.85;;
27127;SDS011;14660;49.008;8.390;2023-02-23T01:09:07;40.60;;;26.83;;
27127;SDS011;14660;49.008;8.390;2023-02-23T01:11:54;41.83;;;24.42;;
27127;SDS011;14660;49.008;8.390;2023-02-23T01:14:22;42.50;;;23.33;;
27127;SDS011;14660;49.008;8.390;2023-02-23T01:16:51;37.58;;;23.92;;
27127;SDS011;14660;49.008;8.390;2023-02-23T01:19:20;40.22;;;24.55;;
27127;SDS011;14660;49.008;8.390;2023-02-23T01:21:45;39.28;;;23.02;;
27127;SDS011;14660;49.008;8.390;2023-02-23T01:24:12;41.75;;;24.75;;
27127;SDS011;14660;49.008;8.390;2023-02-23T01:26:41;38.88;;;23.48;;
27127;SDS011;14660;49.008;8.390;2023-02-23T01:29:11;39.35;;;24.20;;
27127;SDS011;14660;49.008;8.390;2023-02-23T01:31:41;46.42;;;25.92;;
27127;SDS011;14660;49.008;8.390;2023-02-23T01:34:12;44.03;;;24.02;;
27127;SDS011;14660;49.008;8.390;2023-02-23T01:36:40;43.03;;;25.20;;
27127;SDS011;14660;49.008;8.390;2023-02-23T01:39:10;38.88;;;25.10;;
27127;SDS011;14660;49.008;8.390;2023-02-23T01:41:40;43.35;;;24.58;;
27127;SDS011;14660;49.008;8.390;2023-02-23T01:47:12;40.85;;;22.85;;
27127;SDS011;14660;49.008;8.390;2023-02-23T01:49:40;35.97;;;23.30;;
27127;SDS011;14660;49.008;8.390;2023-02-23T01:52:07;37.97;;;23.77;;
27127;SDS011;14660;49.008;8.390;2023-02-23T01:54:39;39.80;;;23.13;;
27127;SDS011;14660;49.008;8.390;2023-02-23T01:57:17;40.75;;;23.75;;
27127;SDS011;14660;49.008;8.390;2023-02-23T01:59:47;34.72;;;21.17;;
27127;SDS011;14660;49.008;8.390;2023-02-23T02:02:18;44.00;;;24.52;;
27127;SDS011;14660;49.008;8.390;2023-02-23T02:04:48;43.50;;;24.92;;
27127;SDS011;14660;49.008;8.390;2023-02-23T02:07:25;37.05;;;23.85;;
27127;SDS011;14660;49.008;8.390;2023-02-23T02:09:54;43.08;;;25.10;;
27127;SDS011;14660;49.008;8.390;2023-02-23T02:12:41;42.53;;;22.85;;
27127;SDS011;14660;49.008;8.390;2023-02-23T02:15:11;36.70;;;23.77;;
27127;SDS011;14660;49.008;8.390;2023-02-23T02:56:56;34.03;;;20.40;;
27127;SDS011;14660;49.008;8.390;2023-02-23T02:59:27;36.40;;;21.35;;
27127;SDS011;14660;49.008;8.390;2023-02-23T03:02:19;35.25;;;22.55;;
27127;SDS011;14660;49.008;8.390;2023-02-23T03:05:16;39.15;;;20.60;;
27127;SDS011;14660;49.008;8.390;2023-02-23T03:11:30;33.78;;;20.50;;
27127;SDS011;14660;49.008;8.390;2023-02-23T03:17:46;30.40;;;20.33;;
27127;SDS011;14660;49.008;8.390;2023-02-23T03:20:42;36.00;;;18.67;;
27127;SDS011;14660;49.008;8.390;2023-02-23T03:27:37;30.85;;;20.30;;
27127;SDS011;14660;49.008;8.390;2023-02-23T03:36:51;30.95;;;18.35;;
27127;SDS011;14660;49.008;8.390;2023-02-23T03:40:04;29.42;;;18.20;;
27127;SDS011;14660;49.008;8.390;2023-02-23T03:43:04;31.73;;;17.95;;
27127;SDS011;14660;49.008;8.390;2023-02-23T03:46:14;25.70;;;17.15;;
27127;SDS011;14660;49.008;8.390;2023-02-23T03:49:02;32.13;;;17.48;;
27127;SDS011;14660;49.008;8.390;2023-02-23T03:51:52;30.35;;;17.85;;
27127;SDS011;14660;49.008;8.390;2023-02-23T03:54:52;25.15;;;17.88;;
27127;SDS011;14660;49.008;8.390;2023-02-23T03:57:42;29.73;;;18.67;;
27127;SDS011;14660;49.008;8.390;2023-02-23T04:00:33;23.15;;;16.02;;
27127;SDS011;14660;49.008;8.390;2023-02-23T04:03:23;28.50;;;16.48;;
27127;SDS011;14660;49.008;8.390;2023-02-23T04:06:12;29.77;;;17.67;;
27127;SDS011;14660;49.008;8.390;2023-02-23T04:09:02;25.65;;;15.90;;
27127;SDS011;14660;49.008;8.390;2023-02-23T04:18:22;22.67;;;14.10;;
27127;SDS011;14660;49.008;8.390;2023-02-23T04:20:51;24.05;;;15.88;;
27127;SDS011;14660;49.008;8.390;2023-02-23T04:23:22;33.08;;;16.30;;
27127;SDS011;14660;49.008;8.390;2023-02-23T04:25:52;30.27;;;16.92;;
27127;SDS011;14660;49.008;8.390;2023-02-23T04:28:20;29.58;;;16.67;;
27127;SDS011;14660;49.008;8.390;2023-02-23T04:30:48;25.52;;;15.90;;
27127;SDS011;14660;49.008;8.390;2023-02-23T04:33:17;25.50;;;16.38;;
27127;SDS011;14660;49.008;8.390;2023-02-23T04:35:45;31.15;;;17.05;;
27127;SDS011;14660;49.008;8.390;2023-02-23T04:38:12;31.88;;;16.33;;
27127;SDS011;14660;49.008;8.390;2023-02-23T04:40:39;25.83;;;15.60;;
27127;SDS011;14660;49.008;8.390;2023-02-23T04:43:06;24.25;;;15.23;;
27127;SDS011;14660;49.008;8.390;2023-02-23T04:45:32;25.42;;;16.02;;
27127;SDS011;14660;49.008;8.390;2023-02-23T04:47:59;25.05;;;14.32;;
27127;SDS011;14660;49.008;8.390;2023-02-23T04:50:26;27.98;;;17.35;;
27127;SDS011;14660;49.008;8.390;2023-02-23T04:52:53;25.52;;;15.75;;
27127;SDS011;14660;49.008;8.390;2023-02-23T04:55:21;30.40;;;16.63;;
27127;SDS011;14660;49.008;8.390;2023-02-23T04:57:50;30.70;;;16.15;;
27127;SDS011;14660;49.008;8.390;2023-02-23T05:00:21;27.07;;;16.20;;
27127;SDS011;14660;49.008;8.390;2023-02-23T05:02:48;25.33;;;15.32;;
27127;SDS011;14660;49.008;8.390;2023-02-23T05:05:15;23.63;;;14.95;;
27127;SDS011;14660;49.008;8.390;2023-02-23T05:07:42;26.55;;;14.07;;
27127;SDS011;14660;49.008;8.390;2023-02-23T05:10:09;25.15;;;15.45;;
27127;SDS011;14660;49.008;8.390;2023-02-23T05:12:37;24.13;;;14.15;;
27127;SDS011;14660;49.008;8.390;2023-02-23T05:15:04;23.08;;;14.82;;
27127;SDS011;14660;49.008;8.390;2023-02-23T05:17:31;30.65;;;15.20;;
27127;SDS011;14660;49.008;8.390;2023-02-23T05:19:58;32.08;;;15.80;;
27127;SDS011;14660;49.008;8.390;2023-02-23T05:22:26;22.73;;;13.32;;
27127;SDS011;14660;49.008;8.390;2023-02-23T05:24:53;24.13;;;14.27;;
27127;SDS011;14660;49.008;8.390;2023-02-23T05:27:19;22.27;;;14.02;;
27127;SDS011;14660;49.008;8.390;2023-02-23T05:29:47;24.05;;;13.80;;
27127;SDS011;14660;49.008;8.390;2023-02-23T05:32:14;25.95;;;14.13;;
27127;SDS011;14660;49.008;8.390;2023-02-23T05:34:42;27.10;;;14.63;;
27127;SDS011;14660;49.008;8.390;2023-02-23T05:37:09;23.50;;;15.13;;
27127;SDS011;14660;49.008;8.390;2023-02-23T05:39:36;26.38;;;14.40;;
27127;SDS011;14660;49.008;8.390;2023-02-23T05:42:03;24.30;;;15.82;;
27127;SDS011;14660;49.008;8.390;2023-02-23T05:44:29;25.27;;;15.95;;
27127;SDS011;14660;49.008;8.390;2023-02-23T05:46:56;23.50;;;15.77;;
27127;SDS011;14660;49.008;8.390;2023-02-23T05:49:23;24.30;;;13.80;;
27127;SDS011;14660;49.008;8.390;2023-02-23T05:51:50;21.42;;;13.07;;
27127;SDS011;14660;49.008;8.390;2023-02-23T05:54:17;27.65;;;15.63;;
27127;SDS011;14660;49.008;8.390;2023-02-23T05:56:43;25.55;;;14.50;;
27127;SDS011;14660;49.008;8.390;2023-02-23T05:59:11;25.10;;;14.02;;
27127;SDS011;14660;49.008;8.390;2023-02-23T06:01:38;23.15;;;12.82;;
27127;SDS011;14660;49.008;8.390;2023-02-23T06:04:04;26.08;;;14.45;;
27127;SDS011;14660;49.008;8.390;2023-02-23T06:06:31;28.63;;;13.60;;
27127;SDS011;14660;49.008;8.390;2023-02-23T06:08:58;27.83;;;14.65;;
27127;SDS011;14660;49.008;8.390;2023-02-23T06:11:34;23.95;;;13.32;;
27127;SDS011;14660;49.008;8.390;2023-02-23T06:14:01;25.02;;;13.65;;
27127;SDS011;14660;49.008;8.390;2023-02-23T06:16:28;26.15;;;14.55;;
27127;SDS011;14660;49.008;8.390;2023-02-23T06:18:55;24.50;;;14.52;;
27127;SDS011;14660;49.008;8.390;2023-02-23T06:21:21;24.73;;;14.18;;
27127;SDS011;14660;49.008;8.390;2023-02-23T06:23:49;23.58;;;14.20;;
27127;SDS011;14660;49.008;8.390;2023-02-23T06:26:16;24.00;;;14.05;;
27127;SDS011;14660;49.008;8.390;2023-02-23T06:28:43;25.77;;;14.65;;
27127;SDS011;14660;49.008;8.390;2023-02-23T06:31:10;21.42;;;13.50;;
27127;SDS011;14660;49.008;8.390;2023-02-23T06:33:36;25.13;;;14.88;;
27127;SDS011;14660;49.008;8.390;2023-02-23T06:36:03;23.13;;;13.88;;
27127;SDS011;14660;49.008;8.390;2023-02-23T06:38:29;20.55;;;13.63;;
27127;SDS011;14660;49.008;8.390;2023-02-23T06:40:56;28.10;;;15.02;;
27127;SDS011;14660;49.008;8.390;2023-02-23T06:43:23;22.23;;;14.10;;
27127;SDS011;14660;49.008;8.390;2023-02-23T06:45:50;25.13;;;14.95;;
27127;SDS011;14660;49.008;8.390;2023-02-23T06:48:16;24.35;;;14.93;;
27127;SDS011;14660;49.008;8.390;2023-02-23T06:50:42;21.85;;;15.30;;
27127;SDS011;14660;49.008;8.390;2023-02-23T06:53:10;22.52;;;14.70;;
27127;SDS011;14660;49.008;8.390;2023-02-23T06:55:37;24.67;;;13.73;;
27127;SDS011;14660;49.008;8.390;2023-02-23T06:58:04;28.17;;;16.20;;
27127;SDS011;14660;49.008;8.390;2023-02-23T07:00:32;24.85;;;13.93;;
27127;SDS011;14660;49.008;8.390;2023-02-23T07:02:59;22.42;;;13.77;;
27127;SDS011;14660;49.008;8.390;2023-02-23T07:05:26;23.38;;;13.77;;
27127;SDS011;14660;49.008;8.390;2023-02-23T07:07:53;27.17;;;14.25;;
27127;SDS011;14660;49.008;8.390;2023-02-23T07:10:20;22.20;;;13.75;;
27127;SDS011;14660;49.008;8.390;2023-02-23T07:12:47;25.05;;;13.82;;
27127;SDS011;14660;49.008;8.390;2023-02-23T07:15:14;22.30;;;13.85;;
27127;SDS011;14660;49.008;8.390;2023-02-23T07:17:42;26.33;;;14.63;;
27127;SDS011;14660;49.008;8.390;2023-02-23T07:20:10;26.65;;;15.50;;
27127;SDS011;14660;49.008;8.390;2023-02-23T07:22:38;23.88;;;14.80;;
27127;SDS011;14660;49.008;8.390;2023-02-23T07:25:05;24.00;;;15.25;;
27127;SDS011;14660;49.008;8.390;2023-02-23T07:27:32;31.45;;;15.38;;
27127;SDS011;14660;49.008;8.390;2023-02-23T07:29:59;27.23;;;15.35;;
27127;SDS011;14660;49.008;8.390;2023-02-23T07:32:29;27.45;;;15.75;;
27127;SDS011;14660;49.008;8.390;2023-02-23T07:34:56;25.02;;;15.15;;
27127;SDS011;14660;49.008;8.390;2023-02-23T07:37:22;25.00;;;15.57;;
27127;SDS011;14660;49.008;8.390;2023-02-23T07:39:49;26.73;;;16.02;;
27127;SDS011;14660;49.008;8.390;2023-02-23T07:42:16;26.42;;;15.88;;
27127;SDS011;14660;49.008;8.390;2023-02-23T07:44:43;34.78;;;18.38;;
27127;SDS011;14660;49.008;8.390;2023-02-23T07:47:10;31.70;;;16.20;;
27127;SDS011;14660;49.008;8.390;2023-02-23T07:49:37;27.67;;;15.50;;
27127;SDS011;14660;49.008;8.390;2023-02-23T07:52:05;28.25;;;16.67;;
27127;SDS011;14660;49.008;8.390;2023-02-23T07:54:31;24.98;;;17.00;;
27127;SDS011;14660;49.008;8.390;2023-02-23T07:56:58;27.75;;;17.25;;
27127;SDS011;14660;49.008;8.390;2023-02-23T07:59:26;25.33;;;15.88;;
27127;SDS011;14660;49.008;8.390;2023-02-23T08:01:53;26.83;;;16.38;;
27127;SDS011;14660;49.008;8.390;2023-02-23T08:04:19;25.95;;;16.88;;
27127;SDS011;14660;49.008;8.390;2023-02-23T08:06:46;25.95;;;15.57;;
27127;SDS011;14660;49.008;8.390;2023-02-23T08:09:13;22.90;;;15.00;;
27127;SDS011;14660;49.008;8.390;2023-02-23T08:11:39;29.25;;;16.08;;
27127;SDS011;14660;49.008;8.390;2023-02-23T08:14:06;30.30;;;16.10;;
27127;SDS011;14660;49.008;8.390;2023-02-23T08:16:32;27.25;;;16.80;;
27127;SDS011;14660;49.008;8.390;2023-02-23T08:18:59;29.05;;;16.17;;
27127;SDS011;14660;49.008;8.390;2023-02-23T08:21:27;26.45;;;16.70;;
27127;SDS011;14660;49.008;8.390;2023-02-23T08:23:55;22.67;;;14.35;;
27127;SDS011;14660;49.008;8.390;2023-02-23T08:26:31;31.65;;;16.75;;
27127;SDS011;14660;49.008;8.390;2023-02-23T08:29:01;26.67;;;15.05;;
27127;SDS011;14660;49.008;8.390;2023-02-23T08:31:27;26.20;;;15.95;;
27127;SDS011;14660;49.008;8.390;2023-02-23T08:33:54;26.85;;;15.90;;
27127;SDS011;14660;49.008;8.390;2023-02-23T08:36:23;27.88;;;15.77;;
27127;SDS011;14660;49.008;8.390;2023-02-23T08:38:50;24.63;;;14.63;;
27127;SDS011;14660;49.008;8.390;2023-02-23T08:41:19;24.33;;;14.68;;
27127;SDS011;14660;49.008;8.390;2023-02-23T08:43:49;25.70;;;15.75;;
27127;SDS011;14660;49.008;8.390;2023-02-23T08:46:16;20.92;;;13.57;;
27127;SDS011;14660;49.008;8.390;2023-02-23T08:48:44;26.17;;;15.88;;
27127;SDS011;14660;49.008;8.390;2023-02-23T08:51:12;23.80;;;14.30;;
27127;SDS011;14660;49.008;8.390;2023-02-23T08:53:39;19.88;;;12.80;;
27127;SDS011;14660;49.008;8.390;2023-02-23T08:56:07;20.60;;;13.02;;
27127;SDS011;14660;49.008;8.390;2023-02-23T08:58:36;25.48;;;15.48;;
27127;SDS011;14660;49.008;8.390;2023-02-23T09:01:03;22.52;;;13.48;;
27127;SDS011;14660;49.008;8.390;2023-02-23T09:03:30;21.73;;;14.05;;
27127;SDS011;14660;49.008;8.390;2023-02-23T09:06:04;19.63;;;11.68;;
27127;SDS011;14660;49.008;8.390;2023-02-23T09:08:33;21.85;;;14.05;;
27127;SDS011;14660;49.008;8.390;2023-02-23T09:11:00;21.70;;;12.65;;
27127;SDS011;14660;49.008;8.390;2023-02-23T09:13:27;19.00;;;12.30;;
27127;SDS011;14660;49.008;8.390;2023-02-23T09:15:54;19.75;;;12.73;;
27127;SDS011;14660;49.008;8.390;2023-02-23T09:18:22;18.45;;;11.07;;
27127;SDS011;14660;49.008;8.390;2023-02-23T09:20:49;20.05;;;12.63;;
27127;SDS011;14660;49.008;8.390;2023-02-23T09:23:17;19.27;;;12.63;;
27127;SDS011;14660;49.008;8.390;2023-02-23T09:25:44;18.50;;;11.80;;
27127;SDS011;14660;49.008;8.390;2023-02-23T09:28:10;19.38;;;12.75;;
27127;SDS011;14660;49.008;8.390;2023-02-23T09:30:39;21.33;;;13.18;;
27127;SDS011;14660;49.008;8.390;2023-02-23T09:33:07;20.83;;;12.10;;
27127;SDS011;14660;49.008;8.390;2023-02-23T09:35:34;15.77;;;11.38;;
27127;SDS011;14660;49.008;8.390;2023-02-23T09:38:00;19.13;;;11.73;;
27127;SDS011;14660;49.008;8.390;2023-02-23T09:40:52;19.25;;;10.73;;
27127;SDS011;14660;49.008;8.390;2023-02-23T09:49:33;21.13;;;11.20;;
27127;SDS011;14660;49.008;8.390;2023-02-23T09:52:04;18.00;;;10.65;;
27127;SDS011;14660;49.008;8.390;2023-02-23T09:54:42;14.70;;;10.27;;
27127;SDS011;14660;49.008;8.390;2023-02-23T09:57:13;17.63;;;11.75;;
27127;SDS011;14660;49.008;8.390;2023-02-23T09:59:44;18.70;;;10.70;;
27127;SDS011;14660;49.008;8.390;2023-02-23T10:05:14;21.30;;;12.38;;
27127;SDS011;14660;49.008;8.390;2023-02-23T10:07:42;20.08;;;13.05;;
27127;SDS011;14660;49.008;8.390;2023-02-23T10:10:23;20.30;;;11.52;;
27127;SDS011;14660;49.008;8.390;2023-02-23T10:22:22;19.40;;;11.30;;
27127;SDS011;14660;49.008;8.390;2023-02-23T10:25:02;19.80;;;12.02;;
27127;SDS011;14660;49.008;8.390;2023-02-23T10:27:37;19.17;;;12.70;;
27127;SDS011;14660;49.008;8.390;2023-02-23T10:32:59;20.55;;;12.48;;
27127;SDS011;14660;49.008;8.390;2023-02-23T10:35:29;22.65;;;13.75;;
27127;SDS011;14660;49.008;8.390;2023-02-23T10:37:58;22.38;;;11.32;;
27127;SDS011;14660;49.008;8.390;2023-02-23T10:40:27;20.58;;;11.90;;
27127;SDS011;14660;49.008;8.390;2023-02-23T10:42:59;21.23;;;12.43;;
27127;SDS011;14660;49.008;8.390;2023-02-23T10:45:28;17.48;;;11.90;;
27127;SDS011;14660;49.008;8.390;2023-02-23T10:50:47;18.17;;;11.38;;
27127;SDS011;14660;49.008;8.390;2023-02-23T10:53:23;22.30;;;12.80;;
27127;SDS011;14660;49.008;8.390;2023-02-23T10:56:02;20.40;;;12.77;;
27127;SDS011;14660;49.008;8.390;2023-02-23T10:58:30;23.10;;;12.88;;
27127;SDS011;14660;49.008;8.390;2023-02-23T11:01:31;26.27;;;13.20;;
27127;SDS011;14660;49.008;8.390;2023-02-23T11:04:17;18.92;;;11.18;;
27127;SDS011;14660;49.008;8.390;2023-02-23T11:06:47;21.85;;;11.13;;
27127;SDS011;14660;49.008;8.390;2023-02-23T11:18:01;22.60;;;12.15;;
27127;SDS011;14660;49.008;8.390;2023-02-23T11:20:34;22.63;;;11.80;;
27127;SDS011;14660;49.008;8.390;2023-02-23T11:23:22;20.27;;;11.15;;
27127;SDS011;14660;49.008;8.390;2023-02-23T11:25:55;21.52;;;11.02;;
27127;SDS011;14660;49.008;8.390;2023-02-23T11:28:32;18.75;;;10.55;;
27127;SDS011;14660;49.008;8.390;2023-02-23T11:31:26;21.00;;;10.40;;
27127;SDS011;14660;49.008;8.390;2023-02-23T11:34:01;19.10;;;11.00;;
27127;SDS011;14660;49.008;8.390;2023-02-23T11:36:32;17.80;;;10.52;;
27127;SDS011;14660;49.008;8.390;2023-02-23T11:42:02;17.30;;;10.30;;
27127;SDS011;14660;49.008;8.390;2023-02-23T11:44:42;18.48;;;9.95;;
27127;SDS011;14660;49.008;8.390;2023-02-23T11:47:18;14.50;;;9.63;;
27127;SDS011;14660;49.008;8.390;2023-02-23T11:49:47;16.98;;;10.27;;
27127;SDS011;14660;49.008;8.390;2023-02-23T11:52:17;17.77;;;10.00;;
27127;SDS011;14660;49.008;8.390;2023-02-23T11:54:55;16.30;;;10.45;;
27127;SDS011;14660;49.008;8.390;2023-02-23T11:57:31;17.95;;;11.15;;
27127;SDS011;14660;49.008;8.390;2023-02-23T12:00:21;20.67;;;10.18;;
27127;SDS011;14660;49.008;8.390;2023-02-23T12:02:52;16.35;;;10.95;;
27127;SDS011;14660;49.008;8.390;2023-02-23T12:08:13;16.35;;;10.82;;
27127;SDS011;14660;49.008;8.390;2023-02-23T12:10:49;17.48;;;10.73;;
27127;SDS011;14660;49.008;8.390;2023-02-23T12:16:04;18.15;;;10.82;;
27127;SDS011;14660;49.008;8.390;2023-02-23T12:18:46;22.40;;;10.48;;
27127;SDS011;14660;49.008;8.390;2023-02-23T12:30:41;20.30;;;10.83;;
27127;SDS011;14660;49.008;8.390;2023-02-23T12:33:33;17.20;;;9.75;;
27127;SDS011;14660;49.008;8.390;2023-02-23T12:42:25;14.98;;;9.80;;
27127;SDS011;14660;49.008;8.390;2023-02-23T12:45:03;14.15;;;8.65;;
27127;SDS011;14660;49.008;8.390;2023-02-23T12:50:40;16.17;;;8.88;;
27127;SDS011;14660;49.008;8.390;2023-02-23T13:18:01;15.80;;;7.80;;
27127;SDS011;14660;49.008;8.390;2023-02-23T13:30:02;11.80;;;7.10;;
27127;SDS011;14660;49.008;8.390;2023-02-23T13:32:31;14.57;;;7.20;;
27127;SDS011;14660;49.008;8.390;2023-02-23T13:38:25;15.15;;;7.90;;
27127;SDS011;14660;49.008;8.390;2023-02-23T13:41:30;17.83;;;8.55;;
27127;SDS011;14660;49.008;8.390;2023-02-23T13:43:59;11.40;;;7.70;;
27127;SDS011;14660;49.008;8.390;2023-02-23T13:46:47;14.20;;;7.68;;
27127;SDS011;14660;49.008;8.390;2023-02-23T13:52:54;12.13;;;7.55;;
27127;SDS011;14660;49.008;8.390;2023-02-23T13:58:26;14.15;;;7.38;;
27127;SDS011;14660;49.008;8.390;2023-02-23T14:03:51;12.85;;;7.35;;
27127;SDS011;14660;49.008;8.390;2023-02-23T14:06:21;13.20;;;7.10;;
27127;SDS011;14660;49.008;8.390;2023-02-23T14:08:54;11.73;;;7.53;;
27127;SDS011;14660;49.008;8.390;2023-02-23T14:14:49;12.77;;;8.00;;
27127;SDS011;14660;49.008;8.390;2023-02-23T14:19:44;13.02;;;7.93;;
27127;SDS011;14660;49.008;8.390;2023-02-23T14:34:58;16.00;;;8.73;;
27127;SDS011;14660;49.008;8.390;2023-02-23T14:37:39;15.07;;;9.30;;
27127;SDS011;14660;49.008;8.390;2023-02-23T14:43:29;17.75;;;9.50;;
27127;SDS011;14660;49.008;8.390;2023-02-23T14:46:10;17.17;;;10.25;;
27127;SDS011;14660;49.008;8.390;2023-02-23T14:54:36;16.92;;;10.95;;
27127;SDS011;14660;49.008;8.390;2023-02-23T14:57:26;18.27;;;11.10;;
27127;SDS011;14660;49.008;8.390;2023-02-23T15:00:05;21.95;;;10.73;;
27127;SDS011;14660;49.008;8.390;2023-02-23T15:03:00;21.23;;;9.93;;
27127;SDS011;14660;49.008;8.390;2023-02-23T15:08:27;18.08;;;10.45;;
27127;SDS011;14660;49.008;8.390;2023-02-23T15:11:02;16.75;;;9.57;;
27127;SDS011;14660;49.008;8.390;2023-02-23T15:16:22;18.58;;;10.25;;
27127;SDS011;14660;49.008;8.390;2023-02-23T15:18:53;20.02;;;10.40;;
27127;SDS011;14660;49.008;8.390;2023-02-23T15:21:23;16.52;;;10.75;;
27127;SDS011;14660;49.008;8.390;2023-02-23T15:23:51;15.70;;;9.27;;
27127;SDS011;14660;49.008;8.390;2023-02-23T15:26:27;17.58;;;9.98;;
27127;SDS011;14660;49.008;8.390;2023-02-23T15:29:31;16.27;;;9.48;;
27127;SDS011;14660;49.008;8.390;2023-02-23T15:31:55;17.60;;;11.00;;
27127;SDS011;14660;49.008;8.390;2023-02-23T15:34:36;17.95;;;11.25;;
27127;SDS011;14660;49.008;8.390;2023-02-23T15:37:04;20.73;;;11.82;;
27127;SDS011;14660;49.008;8.390;2023-02-23T15:39:45;16.73;;;10.75;;
27127;SDS011;14660;49.008;8.390;2023-02-23T15:42:21;21.20;;;11.50;;
27127;SDS011;14660;49.008;8.390;2023-02-23T15:47:59;14.25;;;9.43;;
27127;SDS011;14660;49.008;8.390;2023-02-23T15:50:54;18.60;;;9.95;;
27127;SDS011;14660;49.008;8.390;2023-02-23T15:56:13;17.50;;;10.23;;
27127;SDS011;14660;49.008;8.390;2023-02-23T15:58:48;19.55;;;11.02;;
27127;SDS011;14660;49.008;8.390;2023-02-23T16:01:20;18.65;;;10.15;;
27127;SDS011;14660;49.008;8.390;2023-02-23T16:12:45;21.02;;;10.25;;
27127;SDS011;14660;49.008;8.390;2023-02-23T16:15:21;15.23;;;9.32;;
27127;SDS011;14660;49.008;8.390;2023-02-23T16:18:00;13.57;;;7.60;;
27127;SDS011;14660;49.008;8.390;2023-02-23T16:23:39;12.73;;;8.30;;
27127;SDS011;14660;49.008;8.390;2023-02-23T16:26:10;12.63;;;8.30;;
27127;SDS011;14660;49.008;8.390;2023-02-23T16:28:57;14.43;;;8.73;;
27127;SDS011;14660;49.008;8.390;2023-02-23T16:31:47;13.30;;;8.75;;
27127;SDS011;14660;49.008;8.390;2023-02-23T16:37:25;18.85;;;9.57;;
27127;SDS011;14660;49.008;8.390;2023-02-23T16:39:53;12.75;;;8.45;;
27127;SDS011;14660;49.008;8.390;2023-02-23T16:42:33;18.42;;;9.20;;
27127;SDS011;14660;49.008;8.390;2023-02-23T16:53:05;14.38;;;9.23;;
27127;SDS011;14660;49.008;8.390;2023-02-23T16:55:38;16.20;;;8.73;;
27127;SDS011;14660;49.008;8.390;2023-02-23T16:58:26;18.08;;;10.13;;
27127;SDS011;14660;49.008;8.390;2023-02-23T17:00:56;16.67;;;9.60;;
27127;SDS011;14660;49.008;8.390;2023-02-23T17:03:22;13.60;;;8.60;;
27127;SDS011;14660;49.008;8.390;2023-02-23T17:05:51;16.02;;;9.90;;
27127;SDS011;14660;49.008;8.390;2023-02-23T17:08:22;15.93;;;9.85;;
27127;SDS011;14660;49.008;8.390;2023-02-23T17:10:52;18.60;;;10.88;;
27127;SDS011;14660;49.008;8.390;2023-02-23T17:13:24;21.48;;;9.93;;
27127;SDS011;14660;49.008;8.390;2023-02-23T17:15:53;15.80;;;10.25;;
27127;SDS011;14660;49.008;8.390;2023-02-23T17:18:26;19.25;;;9.93;;
27127;SDS011;14660;49.008;8.390;2023-02-23T17:20:55;15.00;;;9.90;;
27127;SDS011;14660;49.008;8.390;2023-02-23T17:23:23;14.68;;;10.07;;
27127;SDS011;14660;49.008;8.390;2023-02-23T17:25:52;19.67;;;10.32;;
27127;SDS011;14660;49.008;8.390;2023-02-23T17:28:21;14.82;;;9.98;;
27127;SDS011;14660;49.008;8.390;2023-02-23T17:30:47;18.05;;;11.27;;
27127;SDS011;14660;49.008;8.390;2023-02-23T17:33:15;16.70;;;9.38;;
27127;SDS011;14660;49.008;8.390;2023-02-23T17:35:42;23.00;;;11.07;;
27127;SDS011;14660;49.008;8.390;2023-02-23T17:38:09;17.92;;;11.30;;
27127;SDS011;14660;49.008;8.390;2023-02-23T17:40:35;18.90;;;10.82;;
27127;SDS011;14660;49.008;8.390;2023-02-23T17:43:04;22.17;;;12.25;;
27127;SDS011;14660;49.008;8.390;2023-02-23T17:45:34;22.42;;;11.82;;
27127;SDS011;14660;49.008;8.390;2023-02-23T17:48:01;29.08;;;17.80;;
27127;SDS011;14660;49.008;8.390;2023-02-23T17:50:28;18.92;;;12.90;;
27127;SDS011;14660;49.008;8.390;2023-02-23T17:52:55;23.45;;;12.95;;
27127;SDS011;14660;49.008;8.390;2023-02-23T17:55:23;16.58;;;11.10;;
27127;SDS011;14660;49.008;8.390;2023-02-23T17:57:51;17.35;;;11.43;;
27127;SDS011;14660;49.008;8.390;2023-02-23T18:00:18;17.38;;;11.48;;
27127;SDS011;14660;49.008;8.390;2023-02-23T18:02:46;19.75;;;11.90;;
27127;SDS011;14660;49.008;8.390;2023-02-23T18:05:13;19.52;;;10.77;;
27127;SDS011;14660;49.008;8.390;2023-02-23T18:07:41;24.35;;;12.70;;
27127;SDS011;14660;49.008;8.390;2023-02-23T18:10:08;19.98;;;11.20;;
27127;SDS011;14660;49.008;8.390;2023-02-23T18:12:36;18.45;;;10.20;;
27127;SDS011;14660;49.008;8.390;2023-02-23T18:15:03;16.88;;;10.38;;
27127;SDS011;14660;49.008;8.390;2023-02-23T18:17:30;16.63;;;10.20;;
27127;SDS011;14660;49.008;8.390;2023-02-23T18:19:59;17.25;;;9.98;;
27127;SDS011;14660;49.008;8.390;2023-02-23T18:22:26;16.15;;;10.07;;
27127;SDS011;14660;49.008;8.390;2023-02-23T18:24:53;16.70;;;10.13;;
27127;SDS011;14660;49.008;8.390;2023-02-23T18:27:19;21.55;;;12.40;;
27127;SDS011;14660;49.008;8.390;2023-02-23T18:29:47;17.90;;;11.27;;
27127;SDS011;14660;49.008;8.390;2023-02-23T18:32:15;21.95;;;12.32;;
27127;SDS011;14660;49.008;8.390;2023-02-23T18:34:42;23.75;;;11.55;;
27127;SDS011;14660;49.008;8.390;2023-02-23T18:37:08;19.33;;;10.52;;
27127;SDS011;14660;49.008;8.390;2023-02-23T18:39:35;17.23;;;11.48;;
27127;SDS011;14660;49.008;8.390;2023-02-23T18:42:02;18.25;;;10.10;;
27127;SDS011;14660;49.008;8.390;2023-02-23T18:44:29;19.15;;;10.43;;
27127;SDS011;14660;49.008;8.390;2023-02-23T18:46:56;18.45;;;11.80;;